sensor_id;sensor_type;location;lat;lon;timestamp;temperature;humidity
12872;DHT22;6504;53.766;9.626;2023-06-14T00:02:08;16.50;99.90
12872;DHT22;6504;53.766;9.626;2023-06-14T00:04:38;16.50;99.90
12872;DHT22;6504;53.766;9.626;2023-06-14T00:07:08;16.40;99.90
12872;DHT22;6504;53.766;9.626;2023-06-14T00:09:40;16.40;99.90
12872;DHT22;6504;53.766;9.626;2023-06-14T00:12:09;16.50;99.90
12872;DHT22;6504;53.766;9.626;2023-06-14T00:14:38;16.50;99.90
12872;DHT22;6504;53.766;9.626;2023-06-14T00:17:07;16.50;99.90
12872;DHT22;6504;53.766;9.626;2023-06-14T00:19:36;16.50;99.90
12872;DHT22;6504;53.766;9.626;2023-06-14T00:22:07;16.50;99.90
12872;DHT22;6504;53.766;9.626;2023-06-14T00:24:36;16.50;99.90
12872;DHT22;6504;53.766;9.626;2023-06-14T00:27:06;16.50;99.90
12872;DHT22;6504;53.766;9.626;2023-06-14T00:29:35;16.50;99.90
12872;DHT22;6504;53.766;9.626;2023-06-14T00:32:04;16.50;99.90
12872;DHT22;6504;53.766;9.626;2023-06-14T00:34:37;16.50;99.90
12872;DHT22;6504;53.766;9.626;2023-06-14T00:37:08;16.50;99.90
12872;DHT22;6504;53.766;9.626;2023-06-14T00:39:37;16.50;99.90
12872;DHT22;6504;53.766;9.626;2023-06-14T00:42:06;16.60;99.90
12872;DHT22;6504;53.766;9.626;2023-06-14T00:44:35;16.50;99.90
12872;DHT22;6504;53.766;9.626;2023-06-14T00:47:07;16.50;99.90
12872;DHT22;6504;53.766;9.626;2023-06-14T00:49:38;16.50;99.90
12872;DHT22;6504;53.766;9.626;2023-06-14T00:52:09;16.50;99.90
12872;DHT22;6504;53.766;9.626;2023-06-14T00:54:41;16.50;99.90
12872;DHT22;6504;53.766;9.626;2023-06-14T00:57:10;16.50;99.90
12872;DHT22;6504;53.766;9.626;2023-06-14T00:59:44;16.60;99.90
12872;DHT22;6504;53.766;9.626;2023-06-14T01:02:20;16.60;99.90
12872;DHT22;6504;53.766;9.626;2023-06-14T01:04:50;16.50;99.90
12872;DHT22;6504;53.766;9.626;2023-06-14T01:07:28;16.50;99.90
12872;DHT22;6504;53.766;9.626;2023-06-14T01:10:09;16.50;99.90
12872;DHT22;6504;53.766;9.626;2023-06-14T01:12:51;16.50;99.90
12872;DHT22;6504;53.766;9.626;2023-06-14T01:15:24;16.40;99.90
12872;DHT22;6504;53.766;9.626;2023-06-14T01:17:54;16.40;99.90
12872;DHT22;6504;53.766;9.626;2023-06-14T01:20:28;16.40;99.90
12872;DHT22;6504;53.766;9.626;2023-06-14T01:22:59;16.30;99.90
12872;DHT22;6504;53.766;9.626;2023-06-14T01:25:31;16.30;99.90
12872;DHT22;6504;53.766;9.626;2023-06-14T01:28:01;16.30;99.90
12872;DHT22;6504;53.766;9.626;2023-06-14T01:30:31;16.30;99.90
12872;DHT22;6504;53.766;9.626;2023-06-14T01:33:01;16.20;99.90
12872;DHT22;6504;53.766;9.626;2023-06-14T01:35:30;16.20;99.90
12872;DHT22;6504;53.766;9.626;2023-06-14T01:38:01;16.10;99.90
12872;DHT22;6504;53.766;9.626;2023-06-14T01:40:31;16.10;99.90
12872;DHT22;6504;53.766;9.626;2023-06-14T01:43:02;16.10;99.90
12872;DHT22;6504;53.766;9.626;2023-06-14T01:45:33;16.10;99.90
12872;DHT22;6504;53.766;9.626;2023-06-14T01:48:02;16.10;99.90
12872;DHT22;6504;53.766;9.626;2023-06-14T01:50:31;16.10;99.90
12872;DHT22;6504;53.766;9.626;2023-06-14T01:53:02;16.10;99.90
12872;DHT22;6504;53.766;9.626;2023-06-14T01:55:31;16.10;99.90
12872;DHT22;6504;53.766;9.626;2023-06-14T01:58:04;16.10;99.90
12872;DHT22;6504;53.766;9.626;2023-06-14T02:00:33;16.10;99.90
12872;DHT22;6504;53.766;9.626;2023-06-14T02:03:02;16.10;99.90
12872;DHT22;6504;53.766;9.626;2023-06-14T02:05:32;16.10;99.90
12872;DHT22;6504;53.766;9.626;2023-06-14T02:08:04;16.00;99.90
12872;DHT22;6504;53.766;9.626;2023-06-14T02:10:33;16.00;99.90
12872;DHT22;6504;53.766;9.626;2023-06-14T02:13:03;15.90;99.90
12872;DHT22;6504;53.766;9.626;2023-06-14T02:15:32;15.90;99.90
12872;DHT22;6504;53.766;9.626;2023-06-14T02:18:03;15.90;99.90
12872;DHT22;6504;53.766;9.626;2023-06-14T02:20:32;15.90;99.90
12872;DHT22;6504;53.766;9.626;2023-06-14T02:23:05;15.90;99.90
12872;DHT22;6504;53.766;9.626;2023-06-14T02:25:35;15.80;99.90
12872;DHT22;6504;53.766;9.626;2023-06-14T02:28:04;15.90;99.90
12872;DHT22;6504;53.766;9.626;2023-06-14T02:30:33;15.80;99.90
12872;DHT22;6504;53.766;9.626;2023-06-14T02:33:02;15.80;99.90
12872;DHT22;6504;53.766;9.626;2023-06-14T02:35:31;15.80;99.90
12872;DHT22;6504;53.766;9.626;2023-06-14T02:38:00;15.80;99.90
12872;DHT22;6504;53.766;9.626;2023-06-14T02:40:30;15.80;99.90
12872;DHT22;6504;53.766;9.626;2023-06-14T02:42:59;15.80;99.90
12872;DHT22;6504;53.766;9.626;2023-06-14T02:45:29;15.80;99.90
12872;DHT22;6504;53.766;9.626;2023-06-14T02:48:00;15.80;99.90
12872;DHT22;6504;53.766;9.626;2023-06-14T02:50:29;15.80;99.90
12872;DHT22;6504;53.766;9.626;2023-06-14T02:52:59;15.80;99.90
12872;DHT22;6504;53.766;9.626;2023-06-14T02:55:31;15.80;99.90
12872;DHT22;6504;53.766;9.626;2023-06-14T02:58:00;15.80;99.90
12872;DHT22;6504;53.766;9.626;2023-06-14T03:00:30;15.80;99.90
12872;DHT22;6504;53.766;9.626;2023-06-14T03:03:01;15.70;99.90
12872;DHT22;6504;53.766;9.626;2023-06-14T03:05:32;15.60;99.90
12872;DHT22;6504;53.766;9.626;2023-06-14T03:08:05;15.60;99.90
12872;DHT22;6504;53.766;9.626;2023-06-14T03:10:35;15.60;99.90
12872;DHT22;6504;53.766;9.626;2023-06-14T03:13:06;15.60;99.90
12872;DHT22;6504;53.766;9.626;2023-06-14T03:15:37;15.60;99.90
12872;DHT22;6504;53.766;9.626;2023-06-14T03:18:08;15.60;99.90
12872;DHT22;6504;53.766;9.626;2023-06-14T03:20:37;15.60;99.90
12872;DHT22;6504;53.766;9.626;2023-06-14T03:23:06;15.60;99.90
12872;DHT22;6504;53.766;9.626;2023-06-14T03:25:36;15.60;99.90
12872;DHT22;6504;53.766;9.626;2023-06-14T03:28:07;15.60;99.90
12872;DHT22;6504;53.766;9.626;2023-06-14T03:30:38;15.60;99.90
12872;DHT22;6504;53.766;9.626;2023-06-14T03:33:07;15.60;99.90
12872;DHT22;6504;53.766;9.626;2023-06-14T03:35:36;15.60;99.90
12872;DHT22;6504;53.766;9.626;2023-06-14T03:38:05;15.60;99.90
12872;DHT22;6504;53.766;9.626;2023-06-14T03:40:36;15.60;99.90
12872;DHT22;6504;53.766;9.626;2023-06-14T03:43:04;15.60;99.90
12872;DHT22;6504;53.766;9.626;2023-06-14T03:45:33;15.60;99.90
12872;DHT22;6504;53.766;9.626;2023-06-14T03:48:02;15.60;99.90
12872;DHT22;6504;53.766;9.626;2023-06-14T03:50:36;15.50;99.90
12872;DHT22;6504;53.766;9.626;2023-06-14T03:53:06;15.50;99.90
12872;DHT22;6504;53.766;9.626;2023-06-14T03:55:36;15.50;99.90
12872;DHT22;6504;53.766;9.626;2023-06-14T03:58:11;15.50;99.90
12872;DHT22;6504;53.766;9.626;2023-06-14T04:00:40;15.50;99.90
12872;DHT22;6504;53.766;9.626;2023-06-14T04:03:12;15.50;99.90
12872;DHT22;6504;53.766;9.626;2023-06-14T04:05:43;15.50;99.90
12872;DHT22;6504;53.766;9.626;2023-06-14T04:08:12;15.50;99.90
12872;DHT22;6504;53.766;9.626;2023-06-14T04:10:43;15.50;99.90
12872;DHT22;6504;53.766;9.626;2023-06-14T04:13:12;15.50;99.90
12872;DHT22;6504;53.766;9.626;2023-06-14T04:15:41;15.50;99.90
12872;DHT22;6504;53.766;9.626;2023-06-14T04:18:11;15.50;99.90
12872;DHT22;6504;53.766;9.626;2023-06-14T04:20:40;15.50;99.90
12872;DHT22;6504;53.766;9.626;2023-06-14T04:23:16;15.50;99.90
12872;DHT22;6504;53.766;9.626;2023-06-14T04:25:50;15.60;99.90
12872;DHT22;6504;53.766;9.626;2023-06-14T04:28:20;15.60;99.90
12872;DHT22;6504;53.766;9.626;2023-06-14T04:30:54;15.60;99.90
12872;DHT22;6504;53.766;9.626;2023-06-14T04:33:23;15.60;99.90
12872;DHT22;6504;53.766;9.626;2023-06-14T04:35:55;15.70;99.90
12872;DHT22;6504;53.766;9.626;2023-06-14T04:38:24;15.70;99.90
12872;DHT22;6504;53.766;9.626;2023-06-14T04:40:56;15.70;99.90
12872;DHT22;6504;53.766;9.626;2023-06-14T04:43:29;15.80;99.90
12872;DHT22;6504;53.766;9.626;2023-06-14T04:45:59;15.80;99.90
12872;DHT22;6504;53.766;9.626;2023-06-14T04:48:28;15.80;99.90
12872;DHT22;6504;53.766;9.626;2023-06-14T04:50:58;15.80;99.90
12872;DHT22;6504;53.766;9.626;2023-06-14T04:53:27;15.90;99.90
12872;DHT22;6504;53.766;9.626;2023-06-14T04:55:57;15.90;99.90
12872;DHT22;6504;53.766;9.626;2023-06-14T04:58:31;16.00;99.90
12872;DHT22;6504;53.766;9.626;2023-06-14T05:01:02;16.00;99.90
12872;DHT22;6504;53.766;9.626;2023-06-14T05:03:31;16.00;99.90
12872;DHT22;6504;53.766;9.626;2023-06-14T05:06:01;16.00;99.90
12872;DHT22;6504;53.766;9.626;2023-06-14T05:08:30;16.10;99.90
12872;DHT22;6504;53.766;9.626;2023-06-14T05:11:01;16.10;99.90
12872;DHT22;6504;53.766;9.626;2023-06-14T05:13:29;16.10;99.90
12872;DHT22;6504;53.766;9.626;2023-06-14T05:16:02;16.10;99.90
12872;DHT22;6504;53.766;9.626;2023-06-14T05:18:31;16.10;99.90
12872;DHT22;6504;53.766;9.626;2023-06-14T05:21:01;16.20;99.90
12872;DHT22;6504;53.766;9.626;2023-06-14T05:23:31;16.30;99.90
12872;DHT22;6504;53.766;9.626;2023-06-14T05:26:01;16.30;99.90
12872;DHT22;6504;53.766;9.626;2023-06-14T05:28:32;16.40;99.90
12872;DHT22;6504;53.766;9.626;2023-06-14T05:31:00;16.50;99.90
12872;DHT22;6504;53.766;9.626;2023-06-14T05:33:29;16.50;99.90
12872;DHT22;6504;53.766;9.626;2023-06-14T05:35:58;16.60;99.90
12872;DHT22;6504;53.766;9.626;2023-06-14T05:38:27;16.60;99.90
12872;DHT22;6504;53.766;9.626;2023-06-14T05:40:55;16.70;99.90
12872;DHT22;6504;53.766;9.626;2023-06-14T05:43:26;16.70;99.90
12872;DHT22;6504;53.766;9.626;2023-06-14T05:45:54;16.80;99.90
12872;DHT22;6504;53.766;9.626;2023-06-14T05:48:23;16.90;99.90
12872;DHT22;6504;53.766;9.626;2023-06-14T05:50:53;17.00;99.90
12872;DHT22;6504;53.766;9.626;2023-06-14T05:53:22;17.00;99.90
12872;DHT22;6504;53.766;9.626;2023-06-14T05:55:51;17.10;99.90
12872;DHT22;6504;53.766;9.626;2023-06-14T05:58:22;17.20;99.90
12872;DHT22;6504;53.766;9.626;2023-06-14T06:00:54;17.30;99.90
12872;DHT22;6504;53.766;9.626;2023-06-14T06:03:27;17.30;99.90
12872;DHT22;6504;53.766;9.626;2023-06-14T06:05:57;17.40;99.90
12872;DHT22;6504;53.766;9.626;2023-06-14T06:08:26;17.50;99.90
12872;DHT22;6504;53.766;9.626;2023-06-14T06:11:01;17.60;99.90
12872;DHT22;6504;53.766;9.626;2023-06-14T06:13:30;17.70;99.90
12872;DHT22;6504;53.766;9.626;2023-06-14T06:16:04;17.80;99.90
12872;DHT22;6504;53.766;9.626;2023-06-14T06:18:33;17.90;99.90
12872;DHT22;6504;53.766;9.626;2023-06-14T06:21:08;18.00;99.90
12872;DHT22;6504;53.766;9.626;2023-06-14T06:23:39;18.10;99.90
12872;DHT22;6504;53.766;9.626;2023-06-14T06:26:10;18.10;99.90
12872;DHT22;6504;53.766;9.626;2023-06-14T06:28:41;18.20;99.90
12872;DHT22;6504;53.766;9.626;2023-06-14T06:31:11;18.40;99.90
12872;DHT22;6504;53.766;9.626;2023-06-14T06:33:40;18.50;99.90
12872;DHT22;6504;53.766;9.626;2023-06-14T06:36:09;18.50;99.90
12872;DHT22;6504;53.766;9.626;2023-06-14T06:38:40;18.60;99.90
12872;DHT22;6504;53.766;9.626;2023-06-14T06:41:09;18.70;99.90
12872;DHT22;6504;53.766;9.626;2023-06-14T06:43:39;18.80;99.90
12872;DHT22;6504;53.766;9.626;2023-06-14T06:46:08;18.90;99.90
12872;DHT22;6504;53.766;9.626;2023-06-14T06:48:38;18.90;99.90
12872;DHT22;6504;53.766;9.626;2023-06-14T06:51:07;19.10;99.90
12872;DHT22;6504;53.766;9.626;2023-06-14T06:53:37;19.10;99.90
12872;DHT22;6504;53.766;9.626;2023-06-14T06:56:11;19.20;99.90
12872;DHT22;6504;53.766;9.626;2023-06-14T06:58:40;19.30;99.90
12872;DHT22;6504;53.766;9.626;2023-06-14T07:01:09;19.30;99.90
12872;DHT22;6504;53.766;9.626;2023-06-14T07:03:40;19.40;99.90
12872;DHT22;6504;53.766;9.626;2023-06-14T07:06:09;19.50;99.90
12872;DHT22;6504;53.766;9.626;2023-06-14T07:08:39;19.60;99.90
12872;DHT22;6504;53.766;9.626;2023-06-14T07:11:08;19.70;99.90
12872;DHT22;6504;53.766;9.626;2023-06-14T07:13:37;19.80;99.90
12872;DHT22;6504;53.766;9.626;2023-06-14T07:16:09;19.90;99.90
12872;DHT22;6504;53.766;9.626;2023-06-14T07:18:40;20.00;99.90
12872;DHT22;6504;53.766;9.626;2023-06-14T07:21:13;20.10;99.90
12872;DHT22;6504;53.766;9.626;2023-06-14T07:23:42;20.20;99.90
12872;DHT22;6504;53.766;9.626;2023-06-14T07:26:11;20.30;99.90
12872;DHT22;6504;53.766;9.626;2023-06-14T07:28:40;20.40;99.90
12872;DHT22;6504;53.766;9.626;2023-06-14T07:31:12;20.50;99.90
12872;DHT22;6504;53.766;9.626;2023-06-14T07:33:44;20.60;99.90
12872;DHT22;6504;53.766;9.626;2023-06-14T07:36:15;20.70;99.90
12872;DHT22;6504;53.766;9.626;2023-06-14T07:38:46;20.70;99.90
12872;DHT22;6504;53.766;9.626;2023-06-14T07:41:15;20.90;99.90
12872;DHT22;6504;53.766;9.626;2023-06-14T07:43:44;21.00;99.90
12872;DHT22;6504;53.766;9.626;2023-06-14T07:46:14;21.10;99.90
12872;DHT22;6504;53.766;9.626;2023-06-14T07:48:44;21.20;99.90
12872;DHT22;6504;53.766;9.626;2023-06-14T07:51:15;21.40;99.90
12872;DHT22;6504;53.766;9.626;2023-06-14T07:53:44;21.40;99.90
12872;DHT22;6504;53.766;9.626;2023-06-14T07:56:14;21.60;99.90
12872;DHT22;6504;53.766;9.626;2023-06-14T07:58:43;21.70;99.90
12872;DHT22;6504;53.766;9.626;2023-06-14T08:01:12;21.70;99.90
12872;DHT22;6504;53.766;9.626;2023-06-14T08:03:43;21.70;99.90
12872;DHT22;6504;53.766;9.626;2023-06-14T08:06:16;21.80;99.90
12872;DHT22;6504;53.766;9.626;2023-06-14T08:08:45;21.90;99.90
12872;DHT22;6504;53.766;9.626;2023-06-14T08:11:14;22.00;99.90
12872;DHT22;6504;53.766;9.626;2023-06-14T08:13:44;22.10;99.90
12872;DHT22;6504;53.766;9.626;2023-06-14T08:16:16;22.20;99.90
12872;DHT22;6504;53.766;9.626;2023-06-14T08:18:47;22.30;99.90
12872;DHT22;6504;53.766;9.626;2023-06-14T08:21:16;22.40;99.90
12872;DHT22;6504;53.766;9.626;2023-06-14T08:23:45;22.40;99.90
12872;DHT22;6504;53.766;9.626;2023-06-14T08:26:14;22.40;99.90
12872;DHT22;6504;53.766;9.626;2023-06-14T08:28:44;22.50;99.90
12872;DHT22;6504;53.766;9.626;2023-06-14T08:31:13;22.60;99.90
12872;DHT22;6504;53.766;9.626;2023-06-14T08:33:47;22.60;99.90
12872;DHT22;6504;53.766;9.626;2023-06-14T08:36:16;22.70;99.90
12872;DHT22;6504;53.766;9.626;2023-06-14T08:38:45;22.70;99.90
12872;DHT22;6504;53.766;9.626;2023-06-14T08:41:21;22.80;99.90
12872;DHT22;6504;53.766;9.626;2023-06-14T08:43:51;22.90;99.90
12872;DHT22;6504;53.766;9.626;2023-06-14T08:46:20;22.90;99.90
12872;DHT22;6504;53.766;9.626;2023-06-14T08:48:51;22.90;99.90
12872;DHT22;6504;53.766;9.626;2023-06-14T08:51:22;23.00;99.90
12872;DHT22;6504;53.766;9.626;2023-06-14T08:53:55;22.90;99.90
12872;DHT22;6504;53.766;9.626;2023-06-14T08:56:26;22.90;99.90
12872;DHT22;6504;53.766;9.626;2023-06-14T08:59:00;22.90;99.90
12872;DHT22;6504;53.766;9.626;2023-06-14T09:01:34;23.00;99.90
12872;DHT22;6504;53.766;9.626;2023-06-14T09:04:05;23.20;99.90
12872;DHT22;6504;53.766;9.626;2023-06-14T09:06:34;23.30;99.90
12872;DHT22;6504;53.766;9.626;2023-06-14T09:09:07;23.40;99.90
12872;DHT22;6504;53.766;9.626;2023-06-14T09:11:37;23.30;99.90
12872;DHT22;6504;53.766;9.626;2023-06-14T09:14:09;23.40;99.90
12872;DHT22;6504;53.766;9.626;2023-06-14T09:16:38;23.40;99.90
12872;DHT22;6504;53.766;9.626;2023-06-14T09:19:09;23.50;99.90
12872;DHT22;6504;53.766;9.626;2023-06-14T09:21:42;23.60;99.90
12872;DHT22;6504;53.766;9.626;2023-06-14T09:24:18;23.70;99.90
12872;DHT22;6504;53.766;9.626;2023-06-14T09:26:47;23.80;99.90
12872;DHT22;6504;53.766;9.626;2023-06-14T09:29:20;23.90;99.90
12872;DHT22;6504;53.766;9.626;2023-06-14T09:31:49;24.00;99.90
12872;DHT22;6504;53.766;9.626;2023-06-14T09:34:20;24.10;99.90
12872;DHT22;6504;53.766;9.626;2023-06-14T09:36:51;24.10;99.90
12872;DHT22;6504;53.766;9.626;2023-06-14T09:39:20;24.20;99.90
12872;DHT22;6504;53.766;9.626;2023-06-14T09:41:51;24.10;99.90
12872;DHT22;6504;53.766;9.626;2023-06-14T09:44:22;24.10;99.90
12872;DHT22;6504;53.766;9.626;2023-06-14T09:46:53;24.20;99.90
12872;DHT22;6504;53.766;9.626;2023-06-14T09:49:28;24.20;99.90
12872;DHT22;6504;53.766;9.626;2023-06-14T09:52:00;24.30;99.90
12872;DHT22;6504;53.766;9.626;2023-06-14T09:54:31;24.40;99.90
12872;DHT22;6504;53.766;9.626;2023-06-14T09:57:05;24.30;99.90
12872;DHT22;6504;53.766;9.626;2023-06-14T09:59:36;24.30;99.90
12872;DHT22;6504;53.766;9.626;2023-06-14T10:02:13;24.40;99.90
12872;DHT22;6504;53.766;9.626;2023-06-14T10:04:49;24.40;99.90
12872;DHT22;6504;53.766;9.626;2023-06-14T10:07:20;24.40;99.90
12872;DHT22;6504;53.766;9.626;2023-06-14T10:09:52;24.50;99.90
12872;DHT22;6504;53.766;9.626;2023-06-14T10:12:21;24.60;99.90
12872;DHT22;6504;53.766;9.626;2023-06-14T10:14:51;24.70;99.90
12872;DHT22;6504;53.766;9.626;2023-06-14T10:17:32;24.80;99.90
12872;DHT22;6504;53.766;9.626;2023-06-14T10:20:23;24.90;99.90
12872;DHT22;6504;53.766;9.626;2023-06-14T10:23:02;24.80;99.90
12872;DHT22;6504;53.766;9.626;2023-06-14T10:25:32;24.80;99.90
12872;DHT22;6504;53.766;9.626;2023-06-14T10:28:18;24.70;99.90
12872;DHT22;6504;53.766;9.626;2023-06-14T10:31:03;24.70;99.90
12872;DHT22;6504;53.766;9.626;2023-06-14T10:33:33;24.80;99.90
12872;DHT22;6504;53.766;9.626;2023-06-14T10:36:25;24.90;99.90
12872;DHT22;6504;53.766;9.626;2023-06-14T10:39:04;24.90;99.90
12872;DHT22;6504;53.766;9.626;2023-06-14T10:41:35;25.10;99.90
12872;DHT22;6504;53.766;9.626;2023-06-14T10:44:32;25.00;99.90
12872;DHT22;6504;53.766;9.626;2023-06-14T10:47:04;25.00;99.90
12872;DHT22;6504;53.766;9.626;2023-06-14T10:49:39;25.10;99.90
12872;DHT22;6504;53.766;9.626;2023-06-14T10:52:16;25.10;99.90
12872;DHT22;6504;53.766;9.626;2023-06-14T10:55:06;25.10;99.90
12872;DHT22;6504;53.766;9.626;2023-06-14T10:57:41;25.10;99.90
12872;DHT22;6504;53.766;9.626;2023-06-14T11:00:20;25.10;99.90
12872;DHT22;6504;53.766;9.626;2023-06-14T11:03:36;25.20;99.90
12872;DHT22;6504;53.766;9.626;2023-06-14T11:06:15;25.20;99.90
12872;DHT22;6504;53.766;9.626;2023-06-14T11:12:02;25.30;99.90
12872;DHT22;6504;53.766;9.626;2023-06-14T11:14:32;25.30;99.90
12872;DHT22;6504;53.766;9.626;2023-06-14T11:17:03;25.30;99.90
12872;DHT22;6504;53.766;9.626;2023-06-14T11:19:32;25.40;99.90
12872;DHT22;6504;53.766;9.626;2023-06-14T11:22:05;25.50;99.90
12872;DHT22;6504;53.766;9.626;2023-06-14T11:24:37;25.60;99.90
12872;DHT22;6504;53.766;9.626;2023-06-14T11:27:08;25.80;99.90
12872;DHT22;6504;53.766;9.626;2023-06-14T11:29:37;25.90;99.90
12872;DHT22;6504;53.766;9.626;2023-06-14T11:32:07;25.90;99.90
12872;DHT22;6504;53.766;9.626;2023-06-14T11:34:40;25.80;99.90
12872;DHT22;6504;53.766;9.626;2023-06-14T11:37:13;25.80;99.90
12872;DHT22;6504;53.766;9.626;2023-06-14T11:39:44;25.90;99.90
12872;DHT22;6504;53.766;9.626;2023-06-14T11:42:15;25.90;99.90
12872;DHT22;6504;53.766;9.626;2023-06-14T11:44:46;25.90;99.90
12872;DHT22;6504;53.766;9.626;2023-06-14T11:47:15;26.00;99.90
12872;DHT22;6504;53.766;9.626;2023-06-14T11:49:44;26.10;99.90
12872;DHT22;6504;53.766;9.626;2023-06-14T11:52:14;26.20;99.90
12872;DHT22;6504;53.766;9.626;2023-06-14T11:54:44;26.20;99.90
12872;DHT22;6504;53.766;9.626;2023-06-14T11:57:15;26.20;99.90
12872;DHT22;6504;53.766;9.626;2023-06-14T11:59:49;26.40;99.90
12872;DHT22;6504;53.766;9.626;2023-06-14T12:02:19;26.50;99.90
12872;DHT22;6504;53.766;9.626;2023-06-14T12:04:51;26.60;99.90
12872;DHT22;6504;53.766;9.626;2023-06-14T12:07:22;26.60;99.90
12872;DHT22;6504;53.766;9.626;2023-06-14T12:10:07;26.70;99.90
12872;DHT22;6504;53.766;9.626;2023-06-14T12:12:40;26.60;99.90
12872;DHT22;6504;53.766;9.626;2023-06-14T12:15:10;26.60;99.90
12872;DHT22;6504;53.766;9.626;2023-06-14T12:17:42;26.70;99.90
12872;DHT22;6504;53.766;9.626;2023-06-14T12:20:13;26.60;99.90
12872;DHT22;6504;53.766;9.626;2023-06-14T12:22:52;26.60;99.90
12872;DHT22;6504;53.766;9.626;2023-06-14T12:25:28;26.70;99.90
12872;DHT22;6504;53.766;9.626;2023-06-14T12:28:04;26.70;99.90
12872;DHT22;6504;53.766;9.626;2023-06-14T12:30:35;26.70;99.90
12872;DHT22;6504;53.766;9.626;2023-06-14T12:33:04;26.70;99.90
12872;DHT22;6504;53.766;9.626;2023-06-14T12:35:35;26.80;99.90
12872;DHT22;6504;53.766;9.626;2023-06-14T12:38:03;26.80;99.90
12872;DHT22;6504;53.766;9.626;2023-06-14T12:40:32;26.80;99.90
12872;DHT22;6504;53.766;9.626;2023-06-14T12:43:06;26.60;99.90
12872;DHT22;6504;53.766;9.626;2023-06-14T12:45:37;26.50;99.90
12872;DHT22;6504;53.766;9.626;2023-06-14T12:48:06;26.40;99.90
12872;DHT22;6504;53.766;9.626;2023-06-14T12:50:36;26.40;99.90
12872;DHT22;6504;53.766;9.626;2023-06-14T12:53:06;26.30;99.90
12872;DHT22;6504;53.766;9.626;2023-06-14T12:55:36;26.30;99.90
12872;DHT22;6504;53.766;9.626;2023-06-14T12:58:08;26.30;99.90
12872;DHT22;6504;53.766;9.626;2023-06-14T13:00:42;26.40;99.90
12872;DHT22;6504;53.766;9.626;2023-06-14T13:03:13;26.40;99.90
12872;DHT22;6504;53.766;9.626;2023-06-14T13:05:43;26.30;99.90
12872;DHT22;6504;53.766;9.626;2023-06-14T13:08:13;26.20;99.90
12872;DHT22;6504;53.766;9.626;2023-06-14T13:10:45;26.20;99.90
12872;DHT22;6504;53.766;9.626;2023-06-14T13:13:18;26.20;99.90
12872;DHT22;6504;53.766;9.626;2023-06-14T13:15:48;26.10;99.90
12872;DHT22;6504;53.766;9.626;2023-06-14T13:18:18;26.20;99.90
12872;DHT22;6504;53.766;9.626;2023-06-14T13:20:47;26.10;99.90
12872;DHT22;6504;53.766;9.626;2023-06-14T13:23:19;26.00;99.90
12872;DHT22;6504;53.766;9.626;2023-06-14T13:25:48;25.90;99.90
12872;DHT22;6504;53.766;9.626;2023-06-14T13:28:20;25.80;99.90
12872;DHT22;6504;53.766;9.626;2023-06-14T13:30:49;25.80;99.90
12872;DHT22;6504;53.766;9.626;2023-06-14T13:33:18;25.80;99.90
12872;DHT22;6504;53.766;9.626;2023-06-14T13:35:48;25.80;99.90
12872;DHT22;6504;53.766;9.626;2023-06-14T13:38:20;25.80;99.90
12872;DHT22;6504;53.766;9.626;2023-06-14T13:40:49;25.80;99.90
12872;DHT22;6504;53.766;9.626;2023-06-14T13:43:20;25.70;99.90
12872;DHT22;6504;53.766;9.626;2023-06-14T13:45:51;25.60;99.90
12872;DHT22;6504;53.766;9.626;2023-06-14T13:48:20;25.60;99.90
12872;DHT22;6504;53.766;9.626;2023-06-14T13:50:49;25.50;99.90
12872;DHT22;6504;53.766;9.626;2023-06-14T13:53:24;25.60;99.90
12872;DHT22;6504;53.766;9.626;2023-06-14T13:55:56;25.80;99.90
12872;DHT22;6504;53.766;9.626;2023-06-14T13:58:27;25.80;99.90
12872;DHT22;6504;53.766;9.626;2023-06-14T14:00:56;25.90;99.90
12872;DHT22;6504;53.766;9.626;2023-06-14T14:03:27;25.80;99.90
12872;DHT22;6504;53.766;9.626;2023-06-14T14:05:56;25.70;99.90
12872;DHT22;6504;53.766;9.626;2023-06-14T14:08:30;25.80;99.90
12872;DHT22;6504;53.766;9.626;2023-06-14T14:10:59;25.80;99.90
12872;DHT22;6504;53.766;9.626;2023-06-14T14:13:32;25.80;99.90
12872;DHT22;6504;53.766;9.626;2023-06-14T14:16:04;25.90;99.90
12872;DHT22;6504;53.766;9.626;2023-06-14T14:18:34;25.90;99.90
12872;DHT22;6504;53.766;9.626;2023-06-14T14:21:04;25.90;99.90
12872;DHT22;6504;53.766;9.626;2023-06-14T14:23:41;25.80;99.90
12872;DHT22;6504;53.766;9.626;2023-06-14T14:26:12;25.80;99.90
12872;DHT22;6504;53.766;9.626;2023-06-14T14:28:42;25.80;99.90
12872;DHT22;6504;53.766;9.626;2023-06-14T14:31:11;25.80;99.90
12872;DHT22;6504;53.766;9.626;2023-06-14T14:33:41;25.80;99.90
12872;DHT22;6504;53.766;9.626;2023-06-14T14:36:11;25.90;99.90
12872;DHT22;6504;53.766;9.626;2023-06-14T14:38:41;25.90;99.90
12872;DHT22;6504;53.766;9.626;2023-06-14T14:41:10;26.00;99.90
12872;DHT22;6504;53.766;9.626;2023-06-14T14:43:41;26.00;99.90
12872;DHT22;6504;53.766;9.626;2023-06-14T14:46:10;26.00;99.90
12872;DHT22;6504;53.766;9.626;2023-06-14T14:48:40;26.00;99.90
12872;DHT22;6504;53.766;9.626;2023-06-14T14:51:09;26.00;99.90
12872;DHT22;6504;53.766;9.626;2023-06-14T14:53:38;26.00;99.90
12872;DHT22;6504;53.766;9.626;2023-06-14T14:56:08;26.00;99.90
12872;DHT22;6504;53.766;9.626;2023-06-14T14:58:39;26.00;99.90
12872;DHT22;6504;53.766;9.626;2023-06-14T15:01:10;26.10;99.90
12872;DHT22;6504;53.766;9.626;2023-06-14T15:03:44;26.20;99.90
12872;DHT22;6504;53.766;9.626;2023-06-14T15:06:25;26.10;99.90
12872;DHT22;6504;53.766;9.626;2023-06-14T15:08:54;26.00;99.90
12872;DHT22;6504;53.766;9.626;2023-06-14T15:11:23;26.00;99.90
12872;DHT22;6504;53.766;9.626;2023-06-14T15:13:53;26.10;99.90
12872;DHT22;6504;53.766;9.626;2023-06-14T15:16:26;26.20;99.90
12872;DHT22;6504;53.766;9.626;2023-06-14T15:18:57;26.20;99.90
12872;DHT22;6504;53.766;9.626;2023-06-14T15:21:27;26.30;99.90
12872;DHT22;6504;53.766;9.626;2023-06-14T15:23:56;26.40;99.90
12872;DHT22;6504;53.766;9.626;2023-06-14T15:26:28;26.50;99.90
12872;DHT22;6504;53.766;9.626;2023-06-14T15:28:58;26.40;99.90
12872;DHT22;6504;53.766;9.626;2023-06-14T15:31:28;26.20;99.90
12872;DHT22;6504;53.766;9.626;2023-06-14T15:33:58;26.30;99.90
12872;DHT22;6504;53.766;9.626;2023-06-14T15:36:27;26.20;99.90
12872;DHT22;6504;53.766;9.626;2023-06-14T15:38:57;26.20;99.90
12872;DHT22;6504;53.766;9.626;2023-06-14T15:41:30;26.00;99.90
12872;DHT22;6504;53.766;9.626;2023-06-14T15:44:02;25.90;99.90
12872;DHT22;6504;53.766;9.626;2023-06-14T15:46:34;25.90;99.90
12872;DHT22;6504;53.766;9.626;2023-06-14T15:49:09;25.90;99.90
12872;DHT22;6504;53.766;9.626;2023-06-14T15:51:39;25.90;99.90
12872;DHT22;6504;53.766;9.626;2023-06-14T15:54:08;25.90;99.90
12872;DHT22;6504;53.766;9.626;2023-06-14T15:56:38;26.00;99.90
12872;DHT22;6504;53.766;9.626;2023-06-14T15:59:07;25.90;99.90
12872;DHT22;6504;53.766;9.626;2023-06-14T16:01:38;25.90;99.90
12872;DHT22;6504;53.766;9.626;2023-06-14T16:04:07;25.70;99.90
12872;DHT22;6504;53.766;9.626;2023-06-14T16:06:37;25.70;99.90
12872;DHT22;6504;53.766;9.626;2023-06-14T16:09:06;25.70;99.90
12872;DHT22;6504;53.766;9.626;2023-06-14T16:11:36;25.60;99.90
12872;DHT22;6504;53.766;9.626;2023-06-14T16:14:07;25.50;99.90